Time,TemperatureF,DewpointF,PressureIn,WindDirection,WindDirectionDegrees,WindSpeedMPH,WindSpeedGustMPH,Humidity,HourlyPrecipIn,Conditions,Clouds,dailyrainin,SolarRadiationWatts/m^2,SoftwareType,DateUTC
2013-12-26 00:22:00,23.0,13.0,-100.00,East,89,7.0,15.0,64,0.00,,,0.00,1.000000,,2013-12-26 05:22:00,
2013-12-26 00:33:00,23.0,13.0,-100.00,East,89,7.0,15.0,64,0.00,,,0.00,1.000000,,2013-12-26 05:33:00,
2013-12-26 00:43:00,23.0,13.0,-100.00,East,89,7.0,15.0,64,0.00,,,0.00,1.000000,,2013-12-26 05:43:00,
2013-12-26 00:53:00,23.0,13.0,-100.00,East,89,7.0,15.0,64,0.00,,,0.00,1.000000,,2013-12-26 05:53:00,
2013-12-26 01:22:00,23.0,14.0,-100.00,East,93,4.0,15.0,68,0.00,,,0.00,1.000000,,2013-12-26 06:22:00,
2013-12-26 01:33:00,23.0,14.0,-100.00,East,93,4.0,15.0,68,0.00,,,0.00,1.000000,,2013-12-26 06:33:00,
2013-12-26 01:42:00,23.0,14.0,-100.00,East,93,4.0,15.0,68,0.00,,,0.00,1.000000,,2013-12-26 06:42:00,
2013-12-26 01:52:00,23.0,14.0,-100.00,East,93,4.0,15.0,68,0.00,,,0.00,1.000000,,2013-12-26 06:52:00,
2013-12-26 02:22:00,23.0,15.0,-100.00,ENE,61,3.0,12.0,72,0.00,,,0.00,1.000000,,2013-12-26 07:22:00,
2013-12-26 02:32:00,23.0,15.0,-100.00,ENE,61,3.0,12.0,72,0.00,,,0.00,1.000000,,2013-12-26 07:32:00,
2013-12-26 02:42:00,23.0,15.0,-100.00,ENE,61,3.0,12.0,72,0.00,,,0.00,1.000000,,2013-12-26 07:42:00,
2013-12-26 02:52:00,23.0,15.0,-100.00,ENE,61,3.0,12.0,72,0.00,,,0.00,1.000000,,2013-12-26 07:52:00,
2013-12-26 03:22:00,23.0,16.0,-100.00,ESE,116,5.0,11.0,74,0.00,,,0.00,1.000000,,2013-12-26 08:22:00,
2013-12-26 03:32:00,23.0,16.0,-100.00,ESE,116,5.0,11.0,74,0.00,,,0.00,1.000000,,2013-12-26 08:32:00,
2013-12-26 03:42:00,23.0,16.0,-100.00,ESE,116,5.0,11.0,74,0.00,,,0.00,1.000000,,2013-12-26 08:42:00,
2013-12-26 03:53:00,23.0,16.0,-100.00,ESE,116,5.0,11.0,74,0.00,,,0.00,1.000000,,2013-12-26 08:53:00,
2013-12-26 04:22:00,23.0,17.0,-100.00,NE,54,5.0,13.0,76,0.00,,,0.00,1.000000,,2013-12-26 09:22:00,
2013-12-26 04:32:00,23.0,17.0,-100.00,NE,54,5.0,13.0,76,0.00,,,0.00,1.000000,,2013-12-26 09:32:00,
2013-12-26 04:43:00,23.0,17.0,-100.00,NE,54,5.0,13.0,76,0.00,,,0.00,1.000000,,2013-12-26 09:43:00,
2013-12-26 04:53:00,23.0,17.0,-100.00,NE,54,5.0,13.0,76,0.00,,,0.00,1.000000,,2013-12-26 09:53:00,
2013-12-26 05:22:00,23.0,17.0,-100.00,ENE,64,4.0,10.0,76,0.00,,,0.00,1.000000,,2013-12-26 10:22:00,
2013-12-26 05:32:00,23.0,17.0,-100.00,ENE,64,4.0,10.0,76,0.00,,,0.00,1.000000,,2013-12-26 10:32:00,
2013-12-26 05:43:00,23.0,17.0,-100.00,ENE,64,4.0,10.0,76,0.00,,,0.00,1.000000,,2013-12-26 10:43:00,
2013-12-26 05:52:00,23.0,17.0,-100.00,ENE,64,4.0,10.0,76,0.00,,,0.00,1.000000,,2013-12-26 10:52:00,
2013-12-26 06:22:00,23.0,17.0,-100.00,East,88,5.0,13.0,78,0.00,,,0.00,1.000000,,2013-12-26 11:22:00,
2013-12-26 06:33:00,23.0,17.0,-100.00,East,88,5.0,13.0,78,0.00,,,0.00,1.000000,,2013-12-26 11:33:00,
2013-12-26 06:43:00,23.0,17.0,-100.00,East,88,5.0,13.0,78,0.00,,,0.00,1.000000,,2013-12-26 11:43:00,
2013-12-26 06:52:00,23.0,17.0,-100.00,East,88,5.0,13.0,78,0.00,,,0.00,1.000000,,2013-12-26 11:52:00,
2013-12-26 07:22:00,22.0,21.0,-100.00,ESE,106,4.0,11.0,97,0.00,,,0.00,1.000000,,2013-12-26 12:22:00,
2013-12-26 07:32:00,22.0,21.0,-100.00,ESE,106,4.0,11.0,97,0.00,,,0.00,1.000000,,2013-12-26 12:32:00,
2013-12-26 07:42:00,22.0,21.0,-100.00,ESE,106,4.0,11.0,97,0.00,,,0.00,1.000000,,2013-12-26 12:42:00,
2013-12-26 07:53:00,22.0,21.0,-100.00,ESE,106,4.0,11.0,97,0.00,,,0.00,1.000000,,2013-12-26 12:53:00,
2013-12-26 08:22:00,22.0,22.0,-100.00,SE,134,5.0,11.0,100,0.00,,,0.00,2.000000,,2013-12-26 13:22:00,
2013-12-26 08:32:00,22.0,22.0,-100.00,SE,134,5.0,11.0,100,0.00,,,0.00,2.000000,,2013-12-26 13:32:00,
2013-12-26 08:42:00,22.0,22.0,-100.00,SE,134,5.0,11.0,100,0.00,,,0.00,2.000000,,2013-12-26 13:42:00,
2013-12-26 08:52:00,22.0,22.0,-100.00,SE,134,5.0,11.0,100,0.00,,,0.00,2.000000,,2013-12-26 13:52:00,
2013-12-26 09:22:00,23.0,23.0,-100.00,SE,125,5.0,13.0,98,0.00,,,0.00,13.000000,,2013-12-26 14:22:00,
2013-12-26 09:32:00,23.0,23.0,-100.00,SE,125,5.0,13.0,98,0.00,,,0.00,13.000000,,2013-12-26 14:32:00,
2013-12-26 09:42:00,23.0,23.0,-100.00,SE,125,5.0,13.0,98,0.00,,,0.00,13.000000,,2013-12-26 14:42:00,
2013-12-26 09:52:00,23.0,23.0,-100.00,SE,125,5.0,13.0,98,0.00,,,0.00,13.000000,,2013-12-26 14:52:00,
2013-12-26 10:22:00,24.0,23.0,-100.00,South,183,4.0,11.0,94,0.00,,,0.00,31.000000,,2013-12-26 15:22:00,
2013-12-26 10:34:00,24.0,23.0,-100.00,South,183,4.0,11.0,94,0.00,,,0.00,31.000000,,2013-12-26 15:34:00,
2013-12-26 10:43:00,24.0,23.0,-100.00,South,183,4.0,11.0,94,0.00,,,0.00,31.000000,,2013-12-26 15:43:00,
2013-12-26 10:53:00,24.0,23.0,-100.00,South,183,4.0,11.0,94,0.00,,,0.00,31.000000,,2013-12-26 15:53:00,
2013-12-26 11:23:00,26.0,24.0,-100.00,SSE,160,3.0,10.0,91,0.00,,,0.00,71.000000,,2013-12-26 16:23:00,
2013-12-26 11:33:00,26.0,24.0,-100.00,SSE,160,3.0,10.0,91,0.00,,,0.00,71.000000,,2013-12-26 16:33:00,
2013-12-26 11:42:00,26.0,24.0,-100.00,SSE,160,3.0,10.0,91,0.00,,,0.00,71.000000,,2013-12-26 16:42:00,
2013-12-26 11:53:00,26.0,24.0,-100.00,SSE,160,3.0,10.0,91,0.00,,,0.00,71.000000,,2013-12-26 16:53:00,
2013-12-26 12:23:00,31.0,26.0,-100.00,WSW,247,3.0,7.0,80,0.01,,,0.01,192.000000,,2013-12-26 17:23:00,
2013-12-26 12:33:00,31.0,26.0,-100.00,WSW,247,3.0,7.0,80,0.01,,,0.01,192.000000,,2013-12-26 17:33:00,
2013-12-26 12:43:00,31.0,26.0,-100.00,WSW,247,3.0,7.0,80,0.01,,,0.01,192.000000,,2013-12-26 17:43:00,
2013-12-26 12:52:00,31.0,26.0,-100.00,WSW,247,3.0,7.0,80,0.01,,,0.01,192.000000,,2013-12-26 17:52:00,
2013-12-26 13:22:00,32.0,24.0,-100.00,WSW,241,6.0,14.0,72,0.05,,,0.06,358.000000,,2013-12-26 18:22:00,
2013-12-26 13:32:00,32.0,24.0,-100.00,WSW,241,6.0,14.0,72,0.05,,,0.06,358.000000,,2013-12-26 18:32:00,
2013-12-26 13:42:00,32.0,24.0,-100.00,WSW,241,6.0,14.0,72,0.05,,,0.06,358.000000,,2013-12-26 18:42:00,
2013-12-26 13:52:00,32.0,24.0,-100.00,WSW,241,6.0,14.0,72,0.05,,,0.06,358.000000,,2013-12-26 18:52:00,
2013-12-26 14:22:00,34.0,26.0,-100.00,WSW,237,6.0,18.0,71,0.00,,,0.06,319.000000,,2013-12-26 19:22:00,
2013-12-26 14:32:00,34.0,26.0,-100.00,WSW,237,6.0,18.0,71,0.00,,,0.06,319.000000,,2013-12-26 19:32:00,
2013-12-26 14:42:00,34.0,26.0,-100.00,WSW,237,6.0,18.0,71,0.00,,,0.06,319.000000,,2013-12-26 19:42:00,
2013-12-26 14:52:00,34.0,26.0,-100.00,WSW,237,6.0,18.0,71,0.00,,,0.06,319.000000,,2013-12-26 19:52:00,
2013-12-26 15:22:00,34.0,26.0,-100.00,West,259,4.0,15.0,71,0.00,,,0.06,232.000000,,2013-12-26 20:22:00,
2013-12-26 15:33:00,34.0,26.0,-100.00,West,259,4.0,15.0,71,0.00,,,0.06,232.000000,,2013-12-26 20:33:00,
2013-12-26 15:42:00,34.0,26.0,-100.00,West,259,4.0,15.0,71,0.00,,,0.06,232.000000,,2013-12-26 20:42:00,
2013-12-26 15:52:00,34.0,26.0,-100.00,West,259,4.0,15.0,71,0.00,,,0.06,232.000000,,2013-12-26 20:52:00,
2013-12-26 16:22:00,33.0,25.0,-100.00,WSW,256,6.0,12.0,71,0.00,,,0.06,79.000000,,2013-12-26 21:22:00,
2013-12-26 16:33:00,33.0,25.0,-100.00,WSW,256,6.0,12.0,71,0.00,,,0.06,79.000000,,2013-12-26 21:33:00,
2013-12-26 16:43:00,33.0,25.0,-100.00,WSW,256,6.0,12.0,71,0.00,,,0.06,79.000000,,2013-12-26 21:43:00,
2013-12-26 16:53:00,33.0,25.0,-100.00,WSW,256,6.0,12.0,71,0.00,,,0.06,79.000000,,2013-12-26 21:53:00,
2013-12-26 17:23:00,30.0,24.0,-100.00,SSW,200,2.0,16.0,79,0.00,,,0.06,18.000000,,2013-12-26 22:23:00,
2013-12-26 17:33:00,30.0,24.0,-100.00,SSW,200,2.0,16.0,79,0.00,,,0.06,18.000000,,2013-12-26 22:33:00,
2013-12-26 17:43:00,30.0,24.0,-100.00,SSW,200,2.0,16.0,79,0.00,,,0.06,18.000000,,2013-12-26 22:43:00,
2013-12-26 17:52:00,30.0,24.0,-100.00,SSW,200,2.0,16.0,79,0.00,,,0.06,18.000000,,2013-12-26 22:52:00,
2013-12-26 18:22:00,31.0,25.0,-100.00,WSW,241,3.0,10.0,79,0.00,,,0.06,1.000000,,2013-12-26 23:22:00,
2013-12-26 18:33:00,31.0,25.0,-100.00,WSW,241,3.0,10.0,79,0.00,,,0.06,1.000000,,2013-12-26 23:33:00,
2013-12-26 18:42:00,31.0,25.0,-100.00,WSW,241,3.0,10.0,79,0.00,,,0.06,1.000000,,2013-12-26 23:42:00,
2013-12-26 18:53:00,31.0,25.0,-100.00,WSW,241,3.0,10.0,79,0.00,,,0.06,1.000000,,2013-12-26 23:53:00,
2013-12-26 19:22:00,29.0,22.0,-100.00,West,265,3.0,10.0,74,0.00,,,0.06,1.000000,,2013-12-27 00:22:00,
2013-12-26 19:32:00,29.0,22.0,-100.00,West,265,3.0,10.0,74,0.00,,,0.06,1.000000,,2013-12-27 00:32:00,
2013-12-26 19:42:00,29.0,22.0,-100.00,West,265,3.0,10.0,74,0.00,,,0.06,1.000000,,2013-12-27 00:42:00,
2013-12-26 19:52:00,29.0,22.0,-100.00,West,265,3.0,10.0,74,0.00,,,0.06,1.000000,,2013-12-27 00:52:00,
2013-12-26 20:22:00,28.0,20.0,-100.00,WSW,252,3.0,9.0,70,0.00,,,0.06,1.000000,,2013-12-27 01:22:00,
2013-12-26 20:32:00,28.0,20.0,-100.00,WSW,252,3.0,9.0,70,0.00,,,0.06,1.000000,,2013-12-27 01:32:00,
2013-12-26 20:42:00,28.0,20.0,-100.00,WSW,252,3.0,9.0,70,0.00,,,0.06,1.000000,,2013-12-27 01:42:00,
2013-12-26 20:52:00,28.0,20.0,-100.00,WSW,252,3.0,9.0,70,0.00,,,0.06,1.000000,,2013-12-27 01:52:00,
2013-12-26 21:22:00,26.0,19.0,-100.00,SSW,211,3.0,9.0,75,0.00,,,0.06,1.000000,,2013-12-27 02:22:00,
2013-12-26 21:32:00,26.0,19.0,-100.00,SSW,211,3.0,9.0,75,0.00,,,0.06,1.000000,,2013-12-27 02:32:00,
2013-12-26 21:42:00,26.0,19.0,-100.00,SSW,211,3.0,9.0,75,0.00,,,0.06,1.000000,,2013-12-27 02:42:00,
2013-12-26 21:52:00,26.0,19.0,-100.00,SSW,211,3.0,9.0,75,0.00,,,0.06,1.000000,,2013-12-27 02:52:00,
2013-12-26 22:22:00,23.0,19.0,-100.00,North,-999,0.0,3.0,85,0.00,,,0.06,1.000000,,2013-12-27 03:22:00,
2013-12-26 22:33:00,23.0,19.0,-100.00,North,-999,0.0,3.0,85,0.00,,,0.06,1.000000,,2013-12-27 03:33:00,
2013-12-26 22:43:00,23.0,19.0,-100.00,North,-999,0.0,3.0,85,0.00,,,0.06,1.000000,,2013-12-27 03:43:00,
2013-12-26 22:53:00,23.0,19.0,-100.00,North,-999,0.0,3.0,85,0.00,,,0.06,1.000000,,2013-12-27 03:53:00,
2013-12-26 23:23:00,21.0,19.0,-100.00,North,-999,0.0,2.0,90,0.00,,,0.06,1.000000,,2013-12-27 04:23:00,
2013-12-26 23:33:00,21.0,19.0,-100.00,North,-999,0.0,2.0,90,0.00,,,0.06,1.000000,,2013-12-27 04:33:00,
2013-12-26 23:43:00,21.0,19.0,-100.00,North,-999,0.0,2.0,90,0.00,,,0.06,1.000000,,2013-12-27 04:43:00,
2013-12-26 23:53:00,21.0,19.0,-100.00,North,-999,0.0,2.0,90,0.00,,,0.06,1.000000,,2013-12-27 04:53:00,